Time;durP1;ratioP1;P1;durP2;ratioP2;P2;SDS_P1;SDS_P2;PMS_P1;PMS_P2;Temp;Humidity;BMP_temperature;BMP_pressure;BME280_temperature;BME280_humidity;BME280_pressure;Samples;Min_cycle;Max_cycle;Signal;HPM_P1;HPM_P2
2020/12/12 00:01:47;;;;;;;39.60;18.87;;;;;;;4.74;73.49;98829.72;4393635;32;33958;-40
2020/12/12 00:04:16;;;;;;;35.67;17.17;;;;;;;4.63;74.13;98837.09;4406333;32;33326;-40
2020/12/12 00:06:43;;;;;;;40.60;16.67;;;;;;;5.12;72.48;98830.94;4384310;32;34695;-42
2020/12/12 00:09:32;;;;;;;39.83;17.20;;;;;;;4.74;73.80;98828.88;4387789;32;34426;-40
2020/12/12 00:12:01;;;;;;;35.08;16.17;;;;;;;4.85;73.62;98822.38;4394239;32;33740;-40
2020/12/12 00:14:28;;;;;;;37.95;17.48;;;;;;;5.11;72.65;98823.16;4406277;32;34507;-40
2020/12/12 00:16:58;;;;;;;35.97;16.35;;;;;;;4.77;73.59;98816.53;4407339;32;35809;-40
2020/12/12 00:19:26;;;;;;;44.50;19.58;;;;;;;4.79;74.01;98817.34;4393728;32;33954;-41
2020/12/12 00:21:53;;;;;;;31.98;16.15;;;;;;;4.86;73.58;98821.44;4407491;32;33355;-41
2020/12/12 00:24:21;;;;;;;36.72;17.80;;;;;;;4.84;73.70;98818.06;4407333;32;34262;-41
2020/12/12 00:26:49;;;;;;;37.63;17.58;;;;;;;4.62;74.58;98824.94;4407009;32;35546;-41
2020/12/12 00:29:16;;;;;;;41.92;18.08;;;;;;;4.43;75.34;98816.03;4407697;32;34283;-40
2020/12/12 00:31:43;;;;;;;39.83;16.40;;;;;;;4.59;74.89;98817.19;4407200;32;34235;-40
2020/12/12 00:34:11;;;;;;;39.67;16.80;;;;;;;4.97;73.38;98807.97;4406838;32;33579;-40
2020/12/12 00:36:42;;;;;;;34.53;15.77;;;;;;;5.16;72.46;98808.12;4393149;32;35356;-40
2020/12/12 00:39:10;;;;;;;34.67;16.15;;;;;;;5.04;72.80;98806.00;4407098;32;33974;-40
2020/12/12 00:41:38;;;;;;;36.60;16.65;;;;;;;4.65;74.73;98809.12;4407402;32;33526;-40
2020/12/12 00:44:06;;;;;;;38.95;16.75;;;;;;;4.86;73.36;98805.75;4404167;32;33503;-44
2020/12/12 00:46:34;;;;;;;36.15;17.73;;;;;;;5.01;73.55;98806.09;4382964;32;35780;-42
2020/12/12 00:49:04;;;;;;;40.63;17.33;;;;;;;4.65;74.56;98806.50;4408486;32;34022;-40
2020/12/12 00:51:31;;;;;;;39.05;17.65;;;;;;;4.92;73.56;98795.97;4393256;32;33253;-41
2020/12/12 00:54:01;;;;;;;36.42;16.08;;;;;;;5.02;73.44;98794.72;4409937;32;33760;-41
2020/12/12 00:56:28;;;;;;;38.42;15.68;;;;;;;5.23;72.50;98796.53;4412088;32;34584;-41
2020/12/12 00:58:55;;;;;;;33.30;15.70;;;;;;;5.29;72.17;98791.06;4382409;32;33272;-40
2020/12/12 01:01:25;;;;;;;36.03;16.37;;;;;;;4.83;74.13;98790.16;4390740;32;34313;-41
2020/12/12 01:03:55;;;;;;;36.13;15.70;;;;;;;4.80;74.10;98787.69;4404903;32;34324;-41
2020/12/12 01:06:25;;;;;;;37.42;17.05;;;;;;;4.88;74.02;98784.75;4406629;32;35604;-40
2020/12/12 01:08:52;;;;;;;33.10;16.52;;;;;;;5.07;73.31;98790.16;4404955;32;34135;-40
2020/12/12 01:11:19;;;;;;;33.63;16.77;;;;;;;4.94;73.62;98788.91;4406952;32;33463;-40
2020/12/12 01:13:47;;;;;;;35.92;15.10;;;;;;;4.92;73.63;98790.75;4406797;32;33461;-41
2020/12/12 01:16:18;;;;;;;36.67;16.25;;;;;;;5.19;72.57;98794.09;4407168;32;34694;-42
2020/12/12 01:18:48;;;;;;;33.85;15.68;;;;;;;4.83;73.86;98790.16;4406749;32;34498;-40
2020/12/12 01:21:17;;;;;;;35.15;15.52;;;;;;;4.91;73.77;98784.66;4393216;32;33295;-41
2020/12/12 01:23:45;;;;;;;32.38;14.77;;;;;;;4.47;75.61;98783.66;4393359;32;33700;-40
2020/12/12 01:26:13;;;;;;;26.83;13.70;;;;;;;4.80;74.09;98787.69;4390642;32;35660;-40
2020/12/12 01:28:40;;;;;;;26.98;13.45;;;;;;;4.83;73.87;98784.94;4390680;32;35032;-40
2020/12/12 01:31:11;;;;;;;29.25;13.98;;;;;;;4.63;74.72;98784.81;4393391;32;34507;-43
2020/12/12 01:33:40;;;;;;;32.43;14.07;;;;;;;5.10;73.02;98780.44;4406773;32;33508;-42
2020/12/12 01:36:07;;;;;;;32.13;15.02;;;;;;;4.88;74.07;98779.53;4406004;32;35029;-42
2020/12/12 01:38:37;;;;;;;30.37;14.45;;;;;;;5.21;72.69;98774.78;4406961;32;34783;-44
2020/12/12 01:41:07;;;;;;;39.85;15.73;;;;;;;5.28;72.30;98773.66;4393292;32;33730;-47
2020/12/12 01:43:34;;;;;;;33.10;14.82;;;;;;;5.21;72.88;98777.41;4404628;32;33769;-47
2020/12/12 01:46:01;;;;;;;32.30;16.00;;;;;;;4.84;73.84;98777.94;4406887;32;36668;-48
2020/12/12 01:48:29;;;;;;;35.28;15.23;;;;;;;4.60;74.87;98777.94;4406017;32;33905;-49
2020/12/12 01:50:57;;;;;;;29.00;14.55;;;;;;;4.90;74.36;98776.88;4405460;32;34199;-49
2020/12/12 01:53:26;;;;;;;33.60;14.90;;;;;;;5.16;72.98;98763.66;4388156;32;33551;-49
2020/12/12 01:55:54;;;;;;;29.20;12.90;;;;;;;5.07;73.58;98774.47;4393484;32;35318;-50
2020/12/12 01:58:21;;;;;;;34.42;15.15;;;;;;;4.87;74.38;98768.22;4406588;32;34219;-44
2020/12/12 02:00:48;;;;;;;28.55;14.63;;;;;;;4.95;74.08;98772.31;4407183;32;34335;-43
2020/12/12 02:03:21;;;;;;;25.73;12.60;;;;;;;4.90;74.47;98769.88;4406434;32;34738;-41
2020/12/12 02:05:49;;;;;;;29.37;13.10;;;;;;;5.13;73.37;98774.25;4383131;32;34726;-40
2020/12/12 02:08:18;;;;;;;23.67;12.30;;;;;;;5.12;73.62;98775.16;4405538;32;33975;-40
2020/12/12 02:10:47;;;;;;;24.67;12.95;;;;;;;4.91;74.28;98770.72;4393429;32;34060;-40
2020/12/12 02:13:16;;;;;;;23.98;12.10;;;;;;;4.96;73.51;98763.56;4406384;32;33244;-40
2020/12/12 02:15:45;;;;;;;29.17;12.98;;;;;;;5.07;73.35;98770.09;4405436;32;35445;-41
2020/12/12 02:18:20;;;;;;;28.35;13.27;;;;;;;4.79;74.73;98770.25;4406127;32;34321;-41
2020/12/12 02:20:58;;;;;;;23.98;11.73;;;;;;;5.06;73.65;98765.78;4382259;32;33750;-40
2020/12/12 02:23:28;;;;;;;29.33;12.20;;;;;;;5.12;73.60;98756.81;4390141;32;33360;-40
2020/12/12 02:25:56;;;;;;;28.02;12.80;;;;;;;5.03;73.59;98760.69;4405344;32;34832;-43
2020/12/12 02:28:48;;;;;;;25.17;11.05;;;;;;;5.05;73.69;98755.38;4406624;32;34492;-43
2020/12/12 02:31:11;;;;;;;17.58;10.07;;;;;;;4.85;74.22;98749.13;4406737;32;32798;-45
2020/12/12 02:33:38;;;;;;;20.27;9.52;;;;;;;5.03;73.65;98751.94;4392591;32;33833;-41
2020/12/12 02:36:06;;;;;;;18.45;9.73;;;;;;;5.40;71.83;98752.22;4407132;32;35654;-40
2020/12/12 02:38:34;;;;;;;24.30;10.77;;;;;;;5.42;71.49;98741.72;4406856;32;34028;-41
2020/12/12 02:41:08;;;;;;;15.68;8.57;;;;;;;5.37;71.88;98741.91;4406526;32;34026;-40
2020/12/12 02:43:36;;;;;;;21.40;10.57;;;;;;;5.20;72.76;98748.69;4404978;32;34535;-41
2020/12/12 02:46:03;;;;;;;23.95;9.77;;;;;;;5.33;72.00;98740.31;4392891;32;35099;-41
2020/12/12 02:48:30;;;;;;;20.40;11.02;;;;;;;5.08;73.23;98740.41;4402270;32;34466;-42
2020/12/12 02:50:58;;;;;;;20.08;9.82;;;;;;;5.16;72.78;98747.94;4399023;32;33115;-41
2020/12/12 02:53:25;;;;;;;20.30;10.35;;;;;;;5.22;72.83;98737.28;4392576;32;33828;-41
2020/12/12 02:55:52;;;;;;;19.23;9.30;;;;;;;5.34;72.42;98742.00;4406221;32;35402;-41
2020/12/12 02:58:20;;;;;;;19.87;10.05;;;;;;;5.69;71.14;98737.13;4406037;32;34946;-41
2020/12/12 03:00:47;;;;;;;20.65;9.30;;;;;;;5.81;70.64;98736.63;4405852;32;33262;-42
2020/12/12 03:03:14;;;;;;;20.98;9.73;;;;;;;5.52;71.87;98736.97;4392620;32;33959;-40
2020/12/12 03:05:42;;;;;;;24.63;11.38;;;;;;;5.39;72.59;98739.22;4392443;32;34763;-41
2020/12/12 03:08:09;;;;;;;20.95;9.93;;;;;;;5.48;72.39;98748.47;4401172;32;34312;-41
2020/12/12 03:10:36;;;;;;;26.75;10.82;;;;;;;5.47;72.18;98744.16;4389213;32;34247;-41
2020/12/12 03:13:06;;;;;;;19.30;10.70;;;;;;;5.47;72.39;98747.62;4384723;32;33579;-40
2020/12/12 03:15:34;;;;;;;19.23;10.15;;;;;;;5.62;72.07;98740.91;4405850;32;34641;-40
2020/12/12 03:18:01;;;;;;;24.60;10.98;;;;;;;5.78;71.12;98741.97;4389698;32;34246;-41
2020/12/12 03:20:29;;;;;;;20.48;10.07;;;;;;;6.01;70.51;98740.22;4377733;32;33449;-42
2020/12/12 03:23:01;;;;;;;20.12;9.68;;;;;;;5.76;70.96;98732.50;4405916;32;33767;-41
2020/12/12 03:25:29;;;;;;;22.85;12.18;;;;;;;5.39;72.47;98745.28;4405666;32;34966;-43
2020/12/12 03:27:56;;;;;;;22.62;11.12;;;;;;;5.67;71.76;98738.97;4406096;32;33914;-41
2020/12/12 03:30:23;;;;;;;22.83;11.12;;;;;;;5.67;71.95;98738.09;4392038;32;33073;-40
2020/12/12 03:32:53;;;;;;;18.25;9.30;;;;;;;5.24;73.47;98745.91;4377236;32;32854;-41
2020/12/12 03:35:25;;;;;;;21.15;10.07;;;;;;;5.59;72.03;98741.03;4386229;32;34905;-41
2020/12/12 03:37:58;;;;;;;17.92;9.55;;;;;;;5.05;74.16;98734.44;4405808;32;34316;-42
2020/12/12 03:40:33;;;;;;;20.60;10.38;;;;;;;5.42;73.09;98740.88;4405862;32;33102;-41
2020/12/12 03:43:00;;;;;;;17.77;10.00;;;;;;;5.74;71.79;98737.78;4390663;32;32794;-42
2020/12/12 03:45:28;;;;;;;18.42;9.20;;;;;;;5.51;72.42;98728.25;4404733;32;34750;-42
2020/12/12 03:47:55;;;;;;;20.85;9.90;;;;;;;5.80;71.50;98723.59;4392153;32;34054;-42
2020/12/12 03:50:28;;;;;;;21.23;10.73;;;;;;;5.60;72.34;98722.66;4405362;32;34158;-47
2020/12/12 03:52:56;;;;;;;14.90;8.88;;;;;;;5.64;71.95;98723.34;4403926;32;33792;-42
2020/12/12 03:55:24;;;;;;;19.70;10.35;;;;;;;5.75;71.95;98722.94;4405267;32;35650;-45
2020/12/12 03:57:51;;;;;;;17.33;9.23;;;;;;;5.11;73.83;98723.72;4405561;32;34337;-43
2020/12/12 04:00:19;;;;;;;17.37;9.07;;;;;;;5.84;71.37;98723.41;4391561;32;33483;-44
2020/12/12 04:02:49;;;;;;;19.10;10.02;;;;;;;5.67;71.80;98723.25;4391976;32;33462;-45
2020/12/12 04:05:18;;;;;;;18.20;10.50;;;;;;;5.76;71.30;98725.47;4368813;32;34657;-44
2020/12/12 04:07:51;;;;;;;16.23;9.02;;;;;;;5.56;72.39;98720.22;4377133;32;36723;-45
2020/12/12 04:10:18;;;;;;;;;;;;;;;5.71;71.81;98722.22;4378864;32;32337;-41
2020/12/12 04:12:45;;;;;;;13.68;7.60;;;;;;;5.74;71.82;98719.44;4388167;32;33924;-41
2020/12/12 04:15:13;;;;;;;15.98;9.02;;;;;;;5.89;71.07;98729.31;4383512;32;34822;-41
2020/12/12 04:17:40;;;;;;;17.73;8.70;;;;;;;5.04;74.36;98732.75;4398870;32;32967;-43
2020/12/12 04:20:08;;;;;;;17.92;9.00;;;;;;;5.16;74.25;98732.25;4407264;32;34080;-43
2020/12/12 04:22:35;;;;;;;19.02;9.52;;;;;;;5.69;72.03;98734.50;4390113;32;33965;-41
2020/12/12 04:25:03;;;;;;;17.42;9.85;;;;;;;5.57;72.54;98729.78;4404040;32;35367;-41
2020/12/12 04:27:30;;;;;;;19.48;9.43;;;;;;;5.58;72.87;98739.31;4406066;32;34403;-43
2020/12/12 04:29:57;;;;;;;16.90;8.60;;;;;;;5.82;72.16;98727.84;4407736;32;33461;-41
2020/12/12 04:32:25;;;;;;;15.32;9.15;;;;;;;5.82;71.87;98733.09;4406741;32;33698;-41
2020/12/12 04:34:52;;;;;;;19.67;9.73;;;;;;;5.90;71.61;98738.88;4407305;32;35745;-41
2020/12/12 04:37:21;;;;;;;18.77;9.48;;;;;;;5.90;71.50;98733.63;4407353;32;34130;-42
2020/12/12 04:39:49;;;;;;;16.67;9.18;;;;;;;5.83;71.60;98729.53;4400520;32;34199;-42
2020/12/12 04:42:17;;;;;;;20.67;11.43;;;;;;;5.42;73.23;98730.41;4406993;32;33383;-40
2020/12/12 04:44:45;;;;;;;21.62;11.10;;;;;;;5.36;73.68;98729.72;4390041;32;35122;-40
2020/12/12 04:47:13;;;;;;;19.83;11.45;;;;;;;5.33;73.81;98724.59;4393779;32;35101;-41
2020/12/12 04:49:40;;;;;;;21.50;11.48;;;;;;;5.36;73.32;98723.62;4393939;32;34371;-41
2020/12/12 04:52:08;;;;;;;21.08;11.88;;;;;;;5.36;73.34;98719.25;4406997;32;33861;-41
2020/12/12 04:54:36;;;;;;;21.77;11.02;;;;;;;5.34;73.99;98723.69;4393832;32;34771;-42
2020/12/12 04:57:04;;;;;;;22.67;11.75;;;;;;;5.67;72.28;98722.41;4406037;32;34381;-41
2020/12/12 04:59:33;;;;;;;21.50;11.73;;;;;;;5.27;73.94;98721.34;4393541;32;33170;-41
2020/12/12 05:02:03;;;;;;;24.12;12.20;;;;;;;5.22;74.40;98718.06;4393260;32;33746;-40
2020/12/12 05:04:30;;;;;;;20.77;11.18;;;;;;;5.44;73.35;98728.56;4407321;32;35781;-41
2020/12/12 05:06:57;;;;;;;22.62;10.88;;;;;;;5.13;74.36;98720.16;4393024;32;33885;-41
2020/12/12 05:09:27;;;;;;;23.98;12.45;;;;;;;5.18;74.57;98722.59;4403135;32;33265;-41
2020/12/12 05:11:55;;;;;;;24.80;12.23;;;;;;;5.53;73.16;98715.09;4394452;32;33419;-42
2020/12/12 05:14:25;;;;;;;22.60;12.52;;;;;;;5.38;73.91;98720.03;4395168;32;34681;-41
2020/12/12 05:16:54;;;;;;;19.02;10.77;;;;;;;5.34;74.35;98715.84;4375943;32;33027;-41
2020/12/12 05:19:22;;;;;;;22.05;10.43;;;;;;;5.30;74.18;98714.25;4392191;32;33953;-40
2020/12/12 05:21:51;;;;;;;18.27;9.13;;;;;;;5.68;72.84;98714.47;4406270;32;32922;-41
2020/12/12 05:24:19;;;;;;;15.00;7.50;;;;;;;5.55;72.90;98723.72;4389543;32;35180;-41
2020/12/12 05:26:46;;;;;;;17.92;8.30;;;;;;;5.14;74.47;98727.09;4402461;32;34513;-42
2020/12/12 05:29:14;;;;;;;15.45;8.07;;;;;;;5.05;74.76;98726.59;4398857;32;33394;-44
2020/12/12 05:31:43;;;;;;;16.08;8.10;;;;;;;5.49;73.41;98716.97;4389807;32;31467;-44
2020/12/12 05:34:15;;;;;;;16.37;8.25;;;;;;;5.65;72.09;98712.84;4405035;32;35415;-41
2020/12/12 05:36:44;;;;;;;15.80;7.60;;;;;;;5.33;73.20;98724.59;4401663;32;34089;-42
2020/12/12 05:39:13;;;;;;;16.35;9.05;;;;;;;5.20;73.91;98718.13;4398490;32;33434;-41
2020/12/12 05:41:42;;;;;;;16.65;7.90;;;;;;;4.85;75.27;98722.97;4372497;32;33599;-42
2020/12/12 05:44:10;;;;;;;14.68;8.05;;;;;;;4.79;75.44;98731.03;4404307;32;34219;-43
2020/12/12 05:46:38;;;;;;;12.85;8.38;;;;;;;4.69;75.55;98727.06;4387867;32;34237;-42
2020/12/12 05:49:06;;;;;;;14.32;8.55;;;;;;;4.72;75.47;98737.41;4406379;32;34168;-45
2020/12/12 05:51:33;;;;;;;19.85;8.98;;;;;;;4.90;75.11;98725.41;4406205;32;34381;-43
2020/12/12 05:54:01;;;;;;;19.37;7.57;;;;;;;4.58;76.10;98724.00;4405535;32;34724;-44
2020/12/12 05:56:31;;;;;;;17.48;8.98;;;;;;;4.96;74.50;98719.09;4405478;32;34248;-44
2020/12/12 05:58:59;;;;;;;19.73;9.77;;;;;;;4.05;77.83;98734.59;4406354;32;33910;-44
2020/12/12 06:01:31;;;;;;;16.37;8.85;;;;;;;4.30;77.03;98734.59;4406006;32;33801;-45
2020/12/12 06:04:03;;;;;;;20.08;9.82;;;;;;;4.28;76.88;98731.19;4406199;32;34874;-45
2020/12/12 06:06:30;;;;;;;14.40;8.13;;;;;;;4.52;76.21;98732.06;4405431;32;34799;-43
2020/12/12 06:09:00;;;;;;;17.35;9.07;;;;;;;4.70;75.20;98723.56;4392440;32;34112;-47
2020/12/12 06:11:29;;;;;;;17.95;9.10;;;;;;;4.47;75.97;98736.59;4406020;32;34633;-45
2020/12/12 06:13:59;;;;;;;14.02;8.88;;;;;;;4.28;76.73;98721.59;4406188;32;34692;-44
2020/12/12 06:16:27;;;;;;;16.95;8.73;;;;;;;4.56;75.23;98725.81;4405854;32;35655;-42
2020/12/12 06:19:05;;;;;;;14.60;8.73;;;;;;;4.26;76.34;98719.91;4405132;32;33247;-42
2020/12/12 06:21:33;;;;;;;19.35;9.45;;;;;;;4.43;75.84;98711.50;4405745;32;34479;-41
2020/12/12 06:24:01;;;;;;;14.98;8.23;;;;;;;4.12;76.79;98723.00;4403065;32;34783;-41
2020/12/12 06:26:37;;;;;;;22.85;10.60;;;;;;;4.25;76.28;98721.69;4393634;32;34377;-43
2020/12/12 06:29:04;;;;;;;17.20;8.35;;;;;;;3.97;77.81;98720.94;4395199;32;34110;-43
2020/12/12 06:31:35;;;;;;;13.75;8.90;;;;;;;4.17;76.56;98713.25;4398808;32;34033;-45
2020/12/12 06:34:03;;;;;;;15.10;8.32;;;;;;;3.90;78.17;98724.66;4390117;32;35766;-41
2020/12/12 06:36:32;;;;;;;19.83;8.68;;;;;;;4.36;76.07;98721.28;4401253;32;34978;-43
2020/12/12 06:39:25;;;;;;;17.23;8.77;;;;;;;4.12;76.87;98726.47;4401971;32;33040;-42
2020/12/12 06:41:57;;;;;;;19.60;9.23;;;;;;;4.55;75.44;98730.16;4388310;32;34156;-41
2020/12/12 06:44:37;;;;;;;19.67;10.35;;;;;;;4.28;76.64;98736.41;4402932;32;34798;-40
2020/12/12 06:47:06;;;;;;;15.80;8.40;;;;;;;4.63;74.83;98716.84;4407194;32;34108;-42
2020/12/12 06:49:34;;;;;;;17.20;8.40;;;;;;;4.17;76.59;98739.38;4402647;32;34183;-40
2020/12/12 06:52:02;;;;;;;18.15;9.35;;;;;;;4.18;76.08;98741.09;4392149;32;34630;-41
2020/12/12 06:54:32;;;;;;;14.65;7.65;;;;;;;4.15;76.57;98742.97;4405705;32;34879;-43
2020/12/12 06:57:03;;;;;;;17.17;8.68;;;;;;;4.34;75.81;98744.88;4400501;32;35177;-40
2020/12/12 06:59:35;;;;;;;17.65;9.82;;;;;;;4.25;75.92;98745.19;4399334;32;33440;-45
2020/12/12 07:02:06;;;;;;;17.83;9.05;;;;;;;3.99;76.49;98750.47;4394330;32;35992;-40
2020/12/12 07:04:36;;;;;;;16.85;8.82;;;;;;;4.12;77.03;98757.81;4402989;32;35876;-47
2020/12/12 07:07:09;;;;;;;18.98;9.20;;;;;;;4.33;75.88;98755.38;4399623;32;34546;-45
2020/12/12 07:09:38;;;;;;;16.65;8.60;;;;;;;4.72;74.40;98747.88;4388316;32;34254;-45
2020/12/12 07:12:07;;;;;;;18.48;9.20;;;;;;;4.40;75.14;98753.41;4391756;32;33710;-50
2020/12/12 07:14:37;;;;;;;12.52;7.35;;;;;;;4.27;75.82;98752.97;4396535;32;34482;-43
2020/12/12 07:17:08;;;;;;;13.70;8.13;;;;;;;3.98;76.56;98753.97;4394137;32;34348;-43
2020/12/12 07:19:40;;;;;;;15.80;8.77;;;;;;;4.10;76.28;98761.41;4399883;32;33423;-48
2020/12/12 07:22:09;;;;;;;13.45;7.75;;;;;;;4.50;74.86;98762.62;4397763;32;33786;-45
2020/12/12 07:24:38;;;;;;;14.93;7.50;;;;;;;4.05;75.89;98772.00;4393446;32;35124;-41
2020/12/12 07:27:06;;;;;;;15.45;8.80;;;;;;;4.55;74.23;98761.53;4400478;32;34706;-45
2020/12/12 07:29:33;;;;;;;21.85;8.88;;;;;;;4.53;74.30;98772.97;4399498;32;33225;-46
2020/12/12 07:32:01;;;;;;;14.93;8.02;;;;;;;4.64;73.77;98773.44;4389017;32;32313;-40
2020/12/12 07:34:29;;;;;;;14.98;7.47;;;;;;;4.63;73.01;98774.34;4402186;32;34684;-41
2020/12/12 07:37:03;;;;;;;14.55;7.50;;;;;;;4.37;74.25;98778.75;4393932;32;34115;-48
2020/12/12 07:39:33;;;;;;;16.45;8.13;;;;;;;4.27;74.91;98774.75;4397582;32;33381;-43
2020/12/12 07:42:01;;;;;;;15.07;9.13;;;;;;;4.18;75.58;98769.84;4377386;32;33769;-44
2020/12/12 07:44:34;;;;;;;23.92;10.95;;;;;;;4.04;76.51;98777.28;4391020;32;35823;-43
2020/12/12 07:47:03;;;;;;;18.15;9.00;;;;;;;4.52;74.69;98768.66;4406118;32;34034;-40
2020/12/12 07:49:36;;;;;;;19.55;8.50;;;;;;;4.16;75.99;98768.19;4404130;32;33383;-44
2020/12/12 07:52:08;;;;;;;16.00;9.23;;;;;;;4.24;75.81;98772.25;4407406;32;33014;-46
2020/12/12 07:54:47;;;;;;;20.87;9.17;;;;;;;4.79;73.67;98759.78;4406126;32;34821;-42
2020/12/12 07:57:15;;;;;;;17.15;8.57;;;;;;;4.31;75.34;98763.25;4394740;32;35031;-47
2020/12/12 07:59:43;;;;;;;23.48;11.25;;;;;;;4.47;74.54;98766.22;4368152;32;34489;-41
2020/12/12 08:02:13;;;;;;;23.67;11.02;;;;;;;4.46;75.05;98771.47;4373396;32;33682;-45
2020/12/12 08:04:41;;;;;;;21.85;10.27;;;;;;;4.50;75.02;98768.69;4397805;32;34708;-47
2020/12/12 08:07:14;;;;;;;23.77;10.77;;;;;;;4.86;73.22;98771.75;4392907;32;34378;-44
2020/12/12 08:09:51;;;;;;;20.80;10.77;;;;;;;4.16;75.86;98774.25;4401411;32;34367;-43
2020/12/12 08:12:33;;;;;;;19.25;10.05;;;;;;;4.09;76.86;98773.63;4401085;32;33819;-50
2020/12/12 08:15:25;;;;;;;21.50;10.85;;;;;;;4.25;76.01;98779.16;4400833;32;34412;-47
2020/12/12 08:17:52;;;;;;;28.00;12.15;;;;;;;4.47;75.20;98771.44;4402025;32;34326;-44
2020/12/12 08:20:28;;;;;;;20.08;10.00;;;;;;;4.41;75.28;98774.25;4399811;32;33151;-44
2020/12/12 08:22:58;;;;;;;25.55;10.95;;;;;;;4.33;75.97;98771.06;4400212;32;33700;-47
2020/12/12 08:25:28;;;;;;;24.65;11.35;;;;;;;4.34;75.54;98778.84;4405137;32;34968;-45
2020/12/12 08:27:58;;;;;;;23.90;11.07;;;;;;;4.39;75.93;98772.63;4386848;32;34941;-41
2020/12/12 08:30:30;;;;;;;23.12;10.73;;;;;;;4.52;74.95;98769.50;4384800;32;32899;-46
2020/12/12 08:33:05;;;;;;;24.65;10.77;;;;;;;4.57;74.69;98777.19;4382655;32;33145;-41
2020/12/12 08:35:55;;;;;;;26.50;11.95;;;;;;;4.31;75.44;98794.63;4394209;32;35105;-45
2020/12/12 08:38:24;;;;;;;36.60;15.65;;;;;;;4.28;76.10;98792.13;4405863;32;34368;-44
2020/12/12 08:40:51;;;;;;;37.08;17.25;;;;;;;4.42;75.92;98786.44;4393059;32;33287;-42
2020/12/12 08:43:19;;;;;;;25.92;12.80;;;;;;;4.60;75.29;98791.03;4390624;32;33362;-45
2020/12/12 08:45:57;;;;;;;21.83;10.60;;;;;;;4.37;75.26;98797.03;4391102;32;35431;-43
2020/12/12 08:48:35;;;;;;;22.13;9.93;;;;;;;4.40;75.33;98808.28;4406127;32;34249;-42
2020/12/12 08:51:05;;;;;;;26.30;11.25;;;;;;;4.69;74.12;98795.03;4390894;32;33808;-47
2020/12/12 08:53:37;;;;;;;24.02;11.15;;;;;;;4.75;74.27;98801.84;4399896;32;34184;-46
2020/12/12 08:56:23;;;;;;;24.63;11.37;;;;;;;4.31;75.76;98805.06;4403498;32;35821;-42
2020/12/12 08:58:53;;;;;;;27.13;11.63;;;;;;;4.75;74.07;98801.84;4405614;32;33705;-43
2020/12/12 09:01:23;;;;;;;27.02;10.90;;;;;;;4.74;74.36;98798.34;4407021;32;33547;-46
2020/12/12 09:04:03;;;;;;;25.15;11.90;;;;;;;4.70;74.13;98795.88;4389687;32;33951;-46
2020/12/12 09:06:35;;;;;;;23.12;12.55;;;;;;;4.49;75.12;98797.50;4383635;32;34993;-43
2020/12/12 09:09:03;;;;;;;;;;;;;;;4.46;75.50;98792.38;4398259;32;34632;-41
2020/12/12 09:11:31;;;;;;;23.62;11.02;;;;;;;4.36;75.86;98794.47;4406204;32;31079;-42
2020/12/12 09:14:00;;;;;;;25.73;11.43;;;;;;;4.41;76.18;98795.16;4390544;32;33628;-43
2020/12/12 09:16:28;;;;;;;25.02;12.02;;;;;;;4.87;73.53;98789.16;4409590;32;34763;-43
2020/12/12 09:18:57;;;;;;;25.88;12.18;;;;;;;4.55;74.86;98797.28;4400125;32;34167;-41
2020/12/12 09:21:24;;;;;;;31.58;14.15;;;;;;;4.65;74.70;98785.59;4398616;32;32937;-42
2020/12/12 09:23:52;;;;;;;28.38;13.43;;;;;;;4.79;74.07;98792.94;4402168;32;34217;-45
2020/12/12 09:26:20;;;;;;;29.00;13.45;;;;;;;4.86;74.37;98797.06;4391766;32;35818;-42
2020/12/12 09:28:47;;;;;;;32.40;15.32;;;;;;;4.68;74.64;98798.56;4400622;32;35112;-42
2020/12/12 09:31:19;;;;;;;40.85;18.95;;;;;;;4.59;74.98;98793.66;4391676;32;33517;-43
2020/12/12 09:33:47;;;;;;;30.48;14.45;;;;;;;4.37;75.71;98802.28;4408545;32;33219;-42
2020/12/12 09:36:15;;;;;;;25.67;13.02;;;;;;;4.80;74.38;98787.69;4402232;32;34878;-42
2020/12/12 09:38:43;;;;;;;20.35;9.80;;;;;;;4.98;73.51;98787.88;4406088;32;34435;-42
2020/12/12 09:41:11;;;;;;;17.60;10.25;;;;;;;4.95;72.78;98778.41;4391983;32;33390;-41
2020/12/12 09:43:38;;;;;;;20.33;11.10;;;;;;;4.82;73.75;98774.53;4402362;32;33363;-41
2020/12/12 09:46:08;;;;;;;23.75;10.77;;;;;;;4.59;74.28;98767.53;4404466;32;34435;-47
2020/12/12 09:48:37;;;;;;;20.37;10.45;;;;;;;5.16;72.74;98768.03;4390897;32;34727;-41
2020/12/12 09:51:05;;;;;;;22.70;11.10;;;;;;;5.22;72.67;98765.19;4400491;32;32375;-41
2020/12/12 09:53:32;;;;;;;20.60;10.73;;;;;;;5.36;72.19;98763.75;4406602;32;33952;-42
2020/12/12 09:55:59;;;;;;;18.70;10.48;;;;;;;5.02;73.05;98761.56;4407516;32;34853;-42
2020/12/12 09:58:27;;;;;;;18.73;9.38;;;;;;;5.25;72.61;98747.59;4403236;32;116302;-42
2020/12/12 10:00:54;;;;;;;21.98;10.38;;;;;;;5.40;72.26;98746.16;4406674;32;33911;-44
2020/12/12 10:03:22;;;;;;;17.35;9.45;;;;;;;5.28;72.04;98752.72;4406269;32;33695;-41
2020/12/12 10:05:49;;;;;;;21.25;10.95;;;;;;;4.96;73.40;98750.47;4406070;32;34857;-48
2020/12/12 10:08:17;;;;;;;15.57;9.52;;;;;;;4.88;74.14;98754.22;4406666;32;34407;-41
2020/12/12 10:10:45;;;;;;;16.37;9.60;;;;;;;4.53;75.77;98754.69;4404880;32;33422;-41
2020/12/12 10:13:12;;;;;;;18.20;11.23;;;;;;;4.59;75.12;98757.06;4405887;32;33774;-45
2020/12/12 10:15:39;;;;;;;16.17;8.80;;;;;;;4.59;75.42;98752.69;4406456;32;35016;-45
2020/12/12 10:18:10;;;;;;;19.00;10.90;;;;;;;4.99;73.66;98746.00;4392798;32;34385;-43
2020/12/12 10:20:38;;;;;;;19.77;9.88;;;;;;;4.84;74.28;98746.56;4404903;32;33323;-43
2020/12/12 10:23:06;;;;;;;19.02;9.85;;;;;;;4.85;74.27;98743.91;4406466;32;33973;-49
2020/12/12 10:25:33;;;;;;;21.35;10.93;;;;;;;4.76;74.40;98744.25;4392523;32;35860;-47
2020/12/12 10:28:08;;;;;;;21.27;10.80;;;;;;;4.81;74.76;98747.53;4405880;32;35177;-48
2020/12/12 10:30:36;;;;;;;19.00;9.65;;;;;;;4.66;75.21;98742.87;4409236;32;33903;-43
2020/12/12 10:33:12;;;;;;;20.35;10.75;;;;;;;5.19;73.40;98734.75;4406314;32;33948;-44
2020/12/12 10:35:40;;;;;;;26.65;10.93;;;;;;;4.26;76.83;98748.66;4406121;32;34954;-42
2020/12/12 10:38:09;;;;;;;17.02;9.65;;;;;;;4.57;75.52;98748.44;4405535;32;34336;-45
2020/12/12 10:40:44;;;;;;;20.77;10.98;;;;;;;5.04;74.15;98736.22;4403608;32;33551;-43
2020/12/12 10:43:12;;;;;;;27.20;12.70;;;;;;;4.75;75.10;98753.00;4403248;32;33840;-42
2020/12/12 10:45:41;;;;;;;20.27;10.82;;;;;;;4.68;75.44;98750.66;4401637;32;35673;-43
2020/12/12 10:48:09;;;;;;;21.83;12.27;;;;;;;4.80;75.44;98752.84;4391252;32;34570;-41
2020/12/12 10:50:37;;;;;;;19.20;10.95;;;;;;;5.10;74.25;98742.97;4400421;32;33186;-42
2020/12/12 10:53:04;;;;;;;25.27;12.07;;;;;;;4.87;74.41;98747.28;4381425;32;34582;-44
2020/12/12 10:55:31;;;;;;;20.45;11.50;;;;;;;4.97;74.96;98757.41;4402588;32;34576;-41
2020/12/12 10:58:00;;;;;;;20.98;12.55;;;;;;;5.22;73.32;98747.75;4391292;32;34998;-45
2020/12/12 11:00:29;;;;;;;28.23;14.15;;;;;;;4.86;74.86;98755.22;4391381;32;34265;-43
2020/12/12 11:02:56;;;;;;;26.80;12.73;;;;;;;4.78;75.40;98763.31;4397634;32;33905;-42
2020/12/12 11:05:23;;;;;;;24.87;11.50;;;;;;;5.14;74.35;98745.41;4405843;32;35778;-41
2020/12/12 11:07:52;;;;;;;26.42;12.10;;;;;;;5.37;73.18;98747.12;4398791;32;34343;-41
2020/12/12 11:10:20;;;;;;;25.50;12.88;;;;;;;4.80;75.52;98751.06;4411691;32;33830;-47
2020/12/12 11:12:51;;;;;;;22.80;12.05;;;;;;;4.73;75.19;98749.56;4391867;32;33731;-44
2020/12/12 11:15:18;;;;;;;20.35;10.38;;;;;;;4.90;74.97;98742.87;4392978;32;34747;-41
2020/12/12 11:17:45;;;;;;;20.95;11.27;;;;;;;4.94;74.71;98747.94;4391692;32;34212;-46
2020/12/12 11:20:14;;;;;;;24.05;11.05;;;;;;;4.99;74.71;98739.91;4406295;32;32966;-44
2020/12/12 11:22:43;;;;;;;17.67;10.57;;;;;;;5.02;74.40;98750.25;4406862;32;33747;-42
2020/12/12 11:25:10;;;;;;;22.55;9.57;;;;;;;5.12;74.37;98741.13;4412667;32;34726;-43
2020/12/12 11:27:39;;;;;;;20.33;10.68;;;;;;;4.35;76.86;98746.56;4407017;32;34679;-41
2020/12/12 11:30:10;;;;;;;25.00;11.02;;;;;;;4.73;76.04;98739.09;4393966;32;33505;-44
2020/12/12 11:32:39;;;;;;;22.50;11.02;;;;;;;4.50;76.42;98741.72;4403776;32;34572;-42
2020/12/12 11:47:43;;;;;;;26.27;12.07;;;;;;;4.94;75.56;98731.34;4401851;32;35145;-41
2020/12/12 11:50:10;;;;;;;25.12;12.88;;;;;;;4.59;77.05;98737.00;4398250;32;33815;-42
2020/12/12 11:52:39;;;;;;;25.92;12.07;;;;;;;4.49;77.37;98740.84;4397451;32;34232;-41